sensor_id;sensor_type;location;lat;lon;timestamp;P1;durP1;ratioP1;P2;durP2;ratioP2
11877;SDS011;5998;42.676;23.268;2023-07-31T00:02:22;3.70;;;3.20;;
11877;SDS011;5998;42.676;23.268;2023-07-31T00:04:49;3.50;;;3.30;;
11877;SDS011;5998;42.676;23.268;2023-07-31T00:07:15;3.10;;;2.80;;
11877;SDS011;5998;42.676;23.268;2023-07-31T00:09:41;7.80;;;3.50;;
11877;SDS011;5998;42.676;23.268;2023-07-31T00:12:09;3.17;;;2.87;;
11877;SDS011;5998;42.676;23.268;2023-07-31T00:14:36;3.60;;;3.13;;
11877;SDS011;5998;42.676;23.268;2023-07-31T00:17:02;3.70;;;3.40;;
11877;SDS011;5998;42.676;23.268;2023-07-31T00:19:29;4.30;;;3.33;;
11877;SDS011;5998;42.676;23.268;2023-07-31T00:21:55;4.27;;;3.97;;
11877;SDS011;5998;42.676;23.268;2023-07-31T00:24:22;4.40;;;4.10;;
11877;SDS011;5998;42.676;23.268;2023-07-31T00:26:48;4.07;;;3.77;;
11877;SDS011;5998;42.676;23.268;2023-07-31T00:29:16;4.70;;;4.30;;
11877;SDS011;5998;42.676;23.268;2023-07-31T00:31:42;4.87;;;4.23;;
11877;SDS011;5998;42.676;23.268;2023-07-31T00:34:09;5.07;;;4.70;;
11877;SDS011;5998;42.676;23.268;2023-07-31T00:36:35;5.33;;;4.10;;
11877;SDS011;5998;42.676;23.268;2023-07-31T00:39:02;5.10;;;4.70;;
11877;SDS011;5998;42.676;23.268;2023-07-31T00:41:29;5.47;;;5.00;;
11877;SDS011;5998;42.676;23.268;2023-07-31T00:43:56;5.67;;;5.17;;
11877;SDS011;5998;42.676;23.268;2023-07-31T00:46:23;6.03;;;5.53;;
11877;SDS011;5998;42.676;23.268;2023-07-31T00:48:50;6.77;;;6.17;;
11877;SDS011;5998;42.676;23.268;2023-07-31T00:51:17;6.37;;;5.87;;
11877;SDS011;5998;42.676;23.268;2023-07-31T00:53:43;6.43;;;5.83;;
11877;SDS011;5998;42.676;23.268;2023-07-31T00:56:10;6.83;;;6.33;;
11877;SDS011;5998;42.676;23.268;2023-07-31T00:58:37;7.00;;;6.40;;
11877;SDS011;5998;42.676;23.268;2023-07-31T01:01:03;7.30;;;6.70;;
11877;SDS011;5998;42.676;23.268;2023-07-31T01:03:31;8.00;;;7.30;;
11877;SDS011;5998;42.676;23.268;2023-07-31T01:06:01;6.03;;;5.53;;
11877;SDS011;5998;42.676;23.268;2023-07-31T01:08:34;9.60;;;8.80;;
11877;SDS011;5998;42.676;23.268;2023-07-31T01:11:06;11.03;;;10.13;;
11877;SDS011;5998;42.676;23.268;2023-07-31T01:13:33;11.07;;;10.07;;
11877;SDS011;5998;42.676;23.268;2023-07-31T01:16:00;12.30;;;11.03;;
11877;SDS011;5998;42.676;23.268;2023-07-31T01:18:26;12.60;;;11.63;;
11877;SDS011;5998;42.676;23.268;2023-07-31T01:20:57;13.63;;;12.30;;
11877;SDS011;5998;42.676;23.268;2023-07-31T01:23:35;13.73;;;12.53;;
11877;SDS011;5998;42.676;23.268;2023-07-31T01:26:08;11.23;;;10.33;;
11877;SDS011;5998;42.676;23.268;2023-07-31T01:28:39;11.60;;;10.60;;
11877;SDS011;5998;42.676;23.268;2023-07-31T01:31:07;15.40;;;14.00;;
11877;SDS011;5998;42.676;23.268;2023-07-31T01:33:34;17.33;;;15.73;;
11877;SDS011;5998;42.676;23.268;2023-07-31T01:36:01;14.33;;;13.13;;
11877;SDS011;5998;42.676;23.268;2023-07-31T01:38:27;16.87;;;15.43;;
11877;SDS011;5998;42.676;23.268;2023-07-31T01:40:54;17.13;;;15.63;;
11877;SDS011;5998;42.676;23.268;2023-07-31T01:43:21;19.67;;;17.97;;
11877;SDS011;5998;42.676;23.268;2023-07-31T01:45:49;19.30;;;17.60;;
11877;SDS011;5998;42.676;23.268;2023-07-31T01:48:16;21.17;;;19.13;;
11877;SDS011;5998;42.676;23.268;2023-07-31T01:50:42;18.97;;;17.20;;
11877;SDS011;5998;42.676;23.268;2023-07-31T01:53:09;20.97;;;18.90;;
11877;SDS011;5998;42.676;23.268;2023-07-31T01:55:37;18.20;;;16.40;;
11877;SDS011;5998;42.676;23.268;2023-07-31T01:58:03;18.53;;;16.93;;
11877;SDS011;5998;42.676;23.268;2023-07-31T02:00:31;21.17;;;19.27;;
11877;SDS011;5998;42.676;23.268;2023-07-31T02:02:58;21.10;;;19.20;;
11877;SDS011;5998;42.676;23.268;2023-07-31T02:05:25;21.10;;;19.20;;
11877;SDS011;5998;42.676;23.268;2023-07-31T02:07:51;20.87;;;19.07;;
11877;SDS011;5998;42.676;23.268;2023-07-31T02:10:18;22.53;;;20.43;;
11877;SDS011;5998;42.676;23.268;2023-07-31T02:12:44;21.77;;;19.87;;
11877;SDS011;5998;42.676;23.268;2023-07-31T02:15:11;22.40;;;20.37;;
11877;SDS011;5998;42.676;23.268;2023-07-31T02:17:38;22.13;;;20.07;;
11877;SDS011;5998;42.676;23.268;2023-07-31T02:20:05;21.43;;;19.53;;
11877;SDS011;5998;42.676;23.268;2023-07-31T02:22:32;22.70;;;20.40;;
11877;SDS011;5998;42.676;23.268;2023-07-31T02:24:58;20.33;;;18.40;;
11877;SDS011;5998;42.676;23.268;2023-07-31T02:27:25;21.83;;;19.93;;
11877;SDS011;5998;42.676;23.268;2023-07-31T02:29:52;22.03;;;19.93;;
11877;SDS011;5998;42.676;23.268;2023-07-31T02:32:19;21.67;;;19.77;;
11877;SDS011;5998;42.676;23.268;2023-07-31T02:34:47;20.57;;;18.67;;
11877;SDS011;5998;42.676;23.268;2023-07-31T02:37:13;21.53;;;19.27;;
11877;SDS011;5998;42.676;23.268;2023-07-31T02:39:40;21.40;;;19.50;;
11877;SDS011;5998;42.676;23.268;2023-07-31T02:42:06;20.90;;;18.93;;
11877;SDS011;5998;42.676;23.268;2023-07-31T02:44:32;20.03;;;18.23;;
11877;SDS011;5998;42.676;23.268;2023-07-31T02:46:59;19.33;;;17.63;;
11877;SDS011;5998;42.676;23.268;2023-07-31T02:49:25;20.23;;;18.17;;
11877;SDS011;5998;42.676;23.268;2023-07-31T02:51:53;19.87;;;18.10;;
11877;SDS011;5998;42.676;23.268;2023-07-31T02:54:19;21.67;;;19.77;;
11877;SDS011;5998;42.676;23.268;2023-07-31T02:56:46;21.80;;;19.87;;
11877;SDS011;5998;42.676;23.268;2023-07-31T02:59:13;17.93;;;16.23;;
11877;SDS011;5998;42.676;23.268;2023-07-31T03:01:39;20.60;;;18.90;;
11877;SDS011;5998;42.676;23.268;2023-07-31T03:04:06;19.67;;;17.90;;
11877;SDS011;5998;42.676;23.268;2023-07-31T03:06:33;21.67;;;19.70;;
11877;SDS011;5998;42.676;23.268;2023-07-31T03:09:00;20.50;;;18.70;;
11877;SDS011;5998;42.676;23.268;2023-07-31T03:11:27;22.67;;;20.67;;
11877;SDS011;5998;42.676;23.268;2023-07-31T03:13:53;21.80;;;19.90;;
11877;SDS011;5998;42.676;23.268;2023-07-31T03:16:20;23.03;;;20.73;;
11877;SDS011;5998;42.676;23.268;2023-07-31T03:18:46;22.23;;;20.13;;
11877;SDS011;5998;42.676;23.268;2023-07-31T03:21:13;23.57;;;21.17;;
11877;SDS011;5998;42.676;23.268;2023-07-31T03:23:39;21.90;;;19.70;;
11877;SDS011;5998;42.676;23.268;2023-07-31T03:26:08;21.17;;;19.27;;
11877;SDS011;5998;42.676;23.268;2023-07-31T03:28:34;19.90;;;18.03;;
11877;SDS011;5998;42.676;23.268;2023-07-31T03:31:01;21.20;;;19.10;;
11877;SDS011;5998;42.676;23.268;2023-07-31T03:33:27;20.60;;;18.60;;
11877;SDS011;5998;42.676;23.268;2023-07-31T03:35:54;21.40;;;19.40;;
11877;SDS011;5998;42.676;23.268;2023-07-31T03:38:20;19.87;;;17.97;;
11877;SDS011;5998;42.676;23.268;2023-07-31T03:40:47;22.47;;;19.97;;
11877;SDS011;5998;42.676;23.268;2023-07-31T03:43:14;23.60;;;21.27;;
11877;SDS011;5998;42.676;23.268;2023-07-31T03:45:41;22.03;;;19.77;;
11877;SDS011;5998;42.676;23.268;2023-07-31T03:48:07;22.80;;;20.53;;
11877;SDS011;5998;42.676;23.268;2023-07-31T03:50:34;23.87;;;21.43;;
11877;SDS011;5998;42.676;23.268;2023-07-31T03:53:00;23.63;;;21.23;;
11877;SDS011;5998;42.676;23.268;2023-07-31T03:55:27;24.23;;;21.93;;
11877;SDS011;5998;42.676;23.268;2023-07-31T03:57:53;21.93;;;19.67;;
11877;SDS011;5998;42.676;23.268;2023-07-31T04:00:21;23.77;;;21.47;;
11877;SDS011;5998;42.676;23.268;2023-07-31T04:02:47;24.97;;;22.03;;
11877;SDS011;5998;42.676;23.268;2023-07-31T04:05:14;23.97;;;21.53;;
11877;SDS011;5998;42.676;23.268;2023-07-31T04:07:40;24.07;;;21.67;;
11877;SDS011;5998;42.676;23.268;2023-07-31T04:10:07;30.87;;;27.83;;
11877;SDS011;5998;42.676;23.268;2023-07-31T04:12:34;24.30;;;22.00;;
11877;SDS011;5998;42.676;23.268;2023-07-31T04:15:00;24.73;;;22.23;;
11877;SDS011;5998;42.676;23.268;2023-07-31T04:17:28;25.93;;;23.30;;
11877;SDS011;5998;42.676;23.268;2023-07-31T04:19:54;25.60;;;22.90;;
11877;SDS011;5998;42.676;23.268;2023-07-31T04:22:21;24.27;;;21.63;;
11877;SDS011;5998;42.676;23.268;2023-07-31T04:24:47;28.57;;;23.43;;
11877;SDS011;5998;42.676;23.268;2023-07-31T04:27:14;24.53;;;21.93;;
11877;SDS011;5998;42.676;23.268;2023-07-31T04:29:40;25.00;;;22.37;;
11877;SDS011;5998;42.676;23.268;2023-07-31T04:32:07;24.57;;;22.00;;
11877;SDS011;5998;42.676;23.268;2023-07-31T04:34:35;25.23;;;22.63;;
11877;SDS011;5998;42.676;23.268;2023-07-31T04:37:01;24.93;;;22.23;;
11877;SDS011;5998;42.676;23.268;2023-07-31T04:39:28;23.67;;;21.47;;
11877;SDS011;5998;42.676;23.268;2023-07-31T04:41:54;24.83;;;22.17;;
11877;SDS011;5998;42.676;23.268;2023-07-31T04:44:21;21.90;;;19.80;;
11877;SDS011;5998;42.676;23.268;2023-07-31T04:46:47;19.63;;;17.83;;
11877;SDS011;5998;42.676;23.268;2023-07-31T04:49:14;22.57;;;20.43;;
11877;SDS011;5998;42.676;23.268;2023-07-31T04:51:42;20.37;;;18.37;;
11877;SDS011;5998;42.676;23.268;2023-07-31T04:54:08;20.20;;;18.40;;
11877;SDS011;5998;42.676;23.268;2023-07-31T04:56:34;21.73;;;19.70;;
11877;SDS011;5998;42.676;23.268;2023-07-31T04:59:01;20.17;;;18.20;;
11877;SDS011;5998;42.676;23.268;2023-07-31T05:01:27;20.80;;;18.70;;
11877;SDS011;5998;42.676;23.268;2023-07-31T05:03:54;19.30;;;17.57;;
11877;SDS011;5998;42.676;23.268;2023-07-31T05:06:20;20.20;;;18.30;;
11877;SDS011;5998;42.676;23.268;2023-07-31T05:08:48;18.87;;;17.10;;
11877;SDS011;5998;42.676;23.268;2023-07-31T05:11:14;18.87;;;17.00;;
11877;SDS011;5998;42.676;23.268;2023-07-31T05:13:41;18.43;;;16.77;;
11877;SDS011;5998;42.676;23.268;2023-07-31T05:16:07;20.60;;;18.60;;
11877;SDS011;5998;42.676;23.268;2023-07-31T05:18:34;18.37;;;16.67;;
11877;SDS011;5998;42.676;23.268;2023-07-31T05:21:00;17.77;;;16.07;;
11877;SDS011;5998;42.676;23.268;2023-07-31T05:23:27;17.10;;;15.50;;
11877;SDS011;5998;42.676;23.268;2023-07-31T05:25:55;20.27;;;15.43;;
11877;SDS011;5998;42.676;23.268;2023-07-31T05:28:21;16.33;;;14.23;;
11877;SDS011;5998;42.676;23.268;2023-07-31T05:30:47;16.90;;;15.03;;
11877;SDS011;5998;42.676;23.268;2023-07-31T05:33:14;14.63;;;13.10;;
11877;SDS011;5998;42.676;23.268;2023-07-31T05:35:40;12.93;;;11.73;;
11877;SDS011;5998;42.676;23.268;2023-07-31T05:38:07;13.00;;;11.90;;
11877;SDS011;5998;42.676;23.268;2023-07-31T05:40:33;12.90;;;11.70;;
11877;SDS011;5998;42.676;23.268;2023-07-31T05:43:01;11.73;;;10.73;;
11877;SDS011;5998;42.676;23.268;2023-07-31T05:45:28;10.77;;;9.77;;
11877;SDS011;5998;42.676;23.268;2023-07-31T05:47:54;9.23;;;8.33;;
11877;SDS011;5998;42.676;23.268;2023-07-31T05:50:21;9.20;;;8.30;;
11877;SDS011;5998;42.676;23.268;2023-07-31T05:52:47;9.90;;;9.00;;
11877;SDS011;5998;42.676;23.268;2023-07-31T05:55:13;8.60;;;7.73;;
11877;SDS011;5998;42.676;23.268;2023-07-31T05:57:41;8.10;;;7.50;;
11877;SDS011;5998;42.676;23.268;2023-07-31T06:00:10;8.43;;;7.00;;
11877;SDS011;5998;42.676;23.268;2023-07-31T06:02:36;7.23;;;6.53;;
11877;SDS011;5998;42.676;23.268;2023-07-31T06:05:04;6.87;;;5.83;;
11877;SDS011;5998;42.676;23.268;2023-07-31T06:07:30;7.37;;;6.67;;
11877;SDS011;5998;42.676;23.268;2023-07-31T06:09:57;7.23;;;6.53;;
11877;SDS011;5998;42.676;23.268;2023-07-31T06:12:28;6.80;;;5.30;;
11877;SDS011;5998;42.676;23.268;2023-07-31T06:14:54;6.70;;;5.33;;
11877;SDS011;5998;42.676;23.268;2023-07-31T06:17:22;5.53;;;5.10;;
11877;SDS011;5998;42.676;23.268;2023-07-31T06:19:49;6.80;;;4.90;;
11877;SDS011;5998;42.676;23.268;2023-07-31T06:22:15;5.20;;;4.70;;
11877;SDS011;5998;42.676;23.268;2023-07-31T06:24:42;5.20;;;4.80;;
11877;SDS011;5998;42.676;23.268;2023-07-31T06:27:08;5.10;;;4.50;;
11877;SDS011;5998;42.676;23.268;2023-07-31T06:29:34;5.60;;;4.93;;
11877;SDS011;5998;42.676;23.268;2023-07-31T06:32:01;6.90;;;4.73;;
11877;SDS011;5998;42.676;23.268;2023-07-31T06:34:29;7.20;;;5.50;;
11877;SDS011;5998;42.676;23.268;2023-07-31T06:36:55;5.63;;;5.13;;
11877;SDS011;5998;42.676;23.268;2023-07-31T06:39:22;5.77;;;5.13;;
11877;SDS011;5998;42.676;23.268;2023-07-31T06:41:48;5.23;;;4.83;;
11877;SDS011;5998;42.676;23.268;2023-07-31T06:44:15;4.53;;;4.10;;
11877;SDS011;5998;42.676;23.268;2023-07-31T06:46:42;4.67;;;4.27;;
11877;SDS011;5998;42.676;23.268;2023-07-31T06:49:08;6.63;;;4.40;;
11877;SDS011;5998;42.676;23.268;2023-07-31T06:51:36;4.77;;;4.20;;
11877;SDS011;5998;42.676;23.268;2023-07-31T06:54:03;4.20;;;3.90;;
11877;SDS011;5998;42.676;23.268;2023-07-31T06:56:29;4.07;;;3.63;;
11877;SDS011;5998;42.676;23.268;2023-07-31T06:58:56;4.00;;;3.70;;
11877;SDS011;5998;42.676;23.268;2023-07-31T07:01:22;4.33;;;3.93;;
11877;SDS011;5998;42.676;23.268;2023-07-31T07:03:49;4.00;;;3.70;;
11877;SDS011;5998;42.676;23.268;2023-07-31T07:06:16;6.13;;;3.87;;
11877;SDS011;5998;42.676;23.268;2023-07-31T07:08:44;4.20;;;3.80;;
11877;SDS011;5998;42.676;23.268;2023-07-31T07:11:11;9.60;;;3.63;;
11877;SDS011;5998;42.676;23.268;2023-07-31T07:13:37;3.67;;;3.37;;
11877;SDS011;5998;42.676;23.268;2023-07-31T07:16:03;5.27;;;3.57;;
11877;SDS011;5998;42.676;23.268;2023-07-31T07:18:30;6.23;;;3.27;;
11877;SDS011;5998;42.676;23.268;2023-07-31T07:20:57;3.30;;;3.10;;
11877;SDS011;5998;42.676;23.268;2023-07-31T07:23:23;3.17;;;2.87;;
11877;SDS011;5998;42.676;23.268;2023-07-31T07:25:51;3.87;;;3.50;;
11877;SDS011;5998;42.676;23.268;2023-07-31T07:28:17;3.43;;;3.13;;
11877;SDS011;5998;42.676;23.268;2023-07-31T07:30:44;3.80;;;3.33;;
11877;SDS011;5998;42.676;23.268;2023-07-31T07:33:10;3.50;;;3.00;;
11877;SDS011;5998;42.676;23.268;2023-07-31T07:35:37;3.13;;;2.83;;
11877;SDS011;5998;42.676;23.268;2023-07-31T07:38:04;5.40;;;3.20;;
11877;SDS011;5998;42.676;23.268;2023-07-31T07:40:30;6.10;;;4.47;;
11877;SDS011;5998;42.676;23.268;2023-07-31T07:42:58;3.73;;;3.30;;
11877;SDS011;5998;42.676;23.268;2023-07-31T07:45:25;6.40;;;3.43;;
11877;SDS011;5998;42.676;23.268;2023-07-31T07:47:52;4.73;;;3.23;;
11877;SDS011;5998;42.676;23.268;2023-07-31T07:50:20;3.67;;;3.00;;
11877;SDS011;5998;42.676;23.268;2023-07-31T07:52:47;4.23;;;3.37;;
11877;SDS011;5998;42.676;23.268;2023-07-31T07:55:13;6.67;;;3.00;;
11877;SDS011;5998;42.676;23.268;2023-07-31T07:57:40;3.53;;;3.10;;
11877;SDS011;5998;42.676;23.268;2023-07-31T08:00:08;3.97;;;3.10;;
11877;SDS011;5998;42.676;23.268;2023-07-31T08:02:35;7.07;;;3.83;;
11877;SDS011;5998;42.676;23.268;2023-07-31T08:05:02;3.33;;;3.07;;
11877;SDS011;5998;42.676;23.268;2023-07-31T08:07:28;3.80;;;2.80;;
11877;SDS011;5998;42.676;23.268;2023-07-31T08:09:55;3.63;;;2.77;;
11877;SDS011;5998;42.676;23.268;2023-07-31T08:12:21;4.43;;;3.23;;
11877;SDS011;5998;42.676;23.268;2023-07-31T08:14:47;5.40;;;3.27;;
11877;SDS011;5998;42.676;23.268;2023-07-31T08:17:15;4.33;;;2.90;;
11877;SDS011;5998;42.676;23.268;2023-07-31T08:19:42;4.57;;;3.10;;
11877;SDS011;5998;42.676;23.268;2023-07-31T08:22:09;4.30;;;3.03;;
11877;SDS011;5998;42.676;23.268;2023-07-31T08:24:35;3.03;;;2.77;;
11877;SDS011;5998;42.676;23.268;2023-07-31T08:27:02;4.57;;;3.10;;
11877;SDS011;5998;42.676;23.268;2023-07-31T08:29:28;3.30;;;3.00;;
11877;SDS011;5998;42.676;23.268;2023-07-31T08:31:54;3.70;;;3.33;;
11877;SDS011;5998;42.676;23.268;2023-07-31T08:34:22;3.33;;;2.93;;
11877;SDS011;5998;42.676;23.268;2023-07-31T08:36:49;3.70;;;2.90;;
11877;SDS011;5998;42.676;23.268;2023-07-31T08:39:15;3.80;;;3.00;;
11877;SDS011;5998;42.676;23.268;2023-07-31T08:41:42;3.77;;;3.47;;
11877;SDS011;5998;42.676;23.268;2023-07-31T08:44:08;4.83;;;3.50;;
11877;SDS011;5998;42.676;23.268;2023-07-31T08:46:36;3.40;;;3.07;;
11877;SDS011;5998;42.676;23.268;2023-07-31T08:49:04;3.17;;;2.70;;
11877;SDS011;5998;42.676;23.268;2023-07-31T08:51:33;3.00;;;2.70;;
11877;SDS011;5998;42.676;23.268;2023-07-31T08:53:59;3.57;;;2.70;;
11877;SDS011;5998;42.676;23.268;2023-07-31T08:56:26;3.63;;;2.87;;
11877;SDS011;5998;42.676;23.268;2023-07-31T08:58:53;3.20;;;2.70;;
11877;SDS011;5998;42.676;23.268;2023-07-31T09:01:20;6.53;;;3.10;;
11877;SDS011;5998;42.676;23.268;2023-07-31T09:03:47;2.83;;;2.63;;
11877;SDS011;5998;42.676;23.268;2023-07-31T09:06:13;3.47;;;3.00;;
11877;SDS011;5998;42.676;23.268;2023-07-31T09:08:43;3.20;;;2.90;;
11877;SDS011;5998;42.676;23.268;2023-07-31T09:11:09;7.17;;;2.83;;
11877;SDS011;5998;42.676;23.268;2023-07-31T09:13:36;3.03;;;2.83;;
11877;SDS011;5998;42.676;23.268;2023-07-31T09:16:03;3.07;;;2.70;;
11877;SDS011;5998;42.676;23.268;2023-07-31T09:18:29;3.87;;;2.90;;
11877;SDS011;5998;42.676;23.268;2023-07-31T09:21:02;2.70;;;2.50;;
11877;SDS011;5998;42.676;23.268;2023-07-31T09:23:39;4.17;;;2.60;;
11877;SDS011;5998;42.676;23.268;2023-07-31T09:26:07;3.13;;;2.70;;
11877;SDS011;5998;42.676;23.268;2023-07-31T09:28:34;3.78;;;2.92;;
11877;SDS011;5998;42.676;23.268;2023-07-31T09:31:00;4.22;;;3.33;;
11877;SDS011;5998;42.676;23.268;2023-07-31T09:33:27;6.15;;;4.32;;
11877;SDS011;5998;42.676;23.268;2023-07-31T09:35:53;3.47;;;3.17;;
11877;SDS011;5998;42.676;23.268;2023-07-31T09:38:20;3.63;;;3.05;;
11877;SDS011;5998;42.676;23.268;2023-07-31T09:40:47;5.13;;;3.20;;
11877;SDS011;5998;42.676;23.268;2023-07-31T09:43:17;3.92;;;2.63;;
11877;SDS011;5998;42.676;23.268;2023-07-31T09:45:43;3.27;;;2.97;;
11877;SDS011;5998;42.676;23.268;2023-07-31T09:48:11;3.63;;;2.77;;
11877;SDS011;5998;42.676;23.268;2023-07-31T09:50:38;3.93;;;3.07;;
11877;SDS011;5998;42.676;23.268;2023-07-31T09:53:05;5.03;;;3.23;;
11877;SDS011;5998;42.676;23.268;2023-07-31T09:55:32;3.10;;;2.80;;
11877;SDS011;5998;42.676;23.268;2023-07-31T09:57:59;3.77;;;2.63;;
11877;SDS011;5998;42.676;23.268;2023-07-31T10:00:27;6.40;;;2.70;;
11877;SDS011;5998;42.676;23.268;2023-07-31T10:02:57;4.70;;;2.80;;
11877;SDS011;5998;42.676;23.268;2023-07-31T10:05:24;2.97;;;2.67;;
11877;SDS011;5998;42.676;23.268;2023-07-31T10:07:54;4.70;;;2.47;;
11877;SDS011;5998;42.676;23.268;2023-07-31T10:10:21;2.77;;;2.50;;
11877;SDS011;5998;42.676;23.268;2023-07-31T10:12:48;4.40;;;2.37;;
11877;SDS011;5998;42.676;23.268;2023-07-31T10:15:14;2.50;;;2.30;;
11877;SDS011;5998;42.676;23.268;2023-07-31T10:17:42;2.53;;;2.20;;
11877;SDS011;5998;42.676;23.268;2023-07-31T10:20:09;3.87;;;2.43;;
11877;SDS011;5998;42.676;23.268;2023-07-31T10:22:36;3.83;;;2.60;;
11877;SDS011;5998;42.676;23.268;2023-07-31T10:25:03;2.90;;;2.70;;
11877;SDS011;5998;42.676;23.268;2023-07-31T10:27:30;3.83;;;2.30;;
11877;SDS011;5998;42.676;23.268;2023-07-31T10:29:57;3.10;;;2.60;;
11877;SDS011;5998;42.676;23.268;2023-07-31T10:32:24;2.40;;;2.20;;
11877;SDS011;5998;42.676;23.268;2023-07-31T10:34:52;4.80;;;2.43;;
11877;SDS011;5998;42.676;23.268;2023-07-31T10:37:23;2.57;;;2.10;;
11877;SDS011;5998;42.676;23.268;2023-07-31T10:39:57;5.07;;;2.80;;
11877;SDS011;5998;42.676;23.268;2023-07-31T10:42:27;4.07;;;2.50;;
11877;SDS011;5998;42.676;23.268;2023-07-31T10:44:56;9.13;;;2.60;;
11877;SDS011;5998;42.676;23.268;2023-07-31T10:47:22;3.78;;;1.95;;
11877;SDS011;5998;42.676;23.268;2023-07-31T10:49:49;9.40;;;2.60;;
11877;SDS011;5998;42.676;23.268;2023-07-31T10:52:20;3.58;;;2.00;;
11877;SDS011;5998;42.676;23.268;2023-07-31T10:54:49;2.00;;;1.90;;
11877;SDS011;5998;42.676;23.268;2023-07-31T10:57:20;3.55;;;2.40;;
11877;SDS011;5998;42.676;23.268;2023-07-31T10:59:47;5.03;;;1.92;;
11877;SDS011;5998;42.676;23.268;2023-07-31T11:02:23;2.10;;;2.00;;
11877;SDS011;5998;42.676;23.268;2023-07-31T11:05:05;4.60;;;2.28;;
11877;SDS011;5998;42.676;23.268;2023-07-31T11:10:17;2.30;;;2.00;;
11877;SDS011;5998;42.676;23.268;2023-07-31T11:12:44;2.33;;;2.13;;
11877;SDS011;5998;42.676;23.268;2023-07-31T11:15:11;2.17;;;1.98;;
11877;SDS011;5998;42.676;23.268;2023-07-31T11:17:38;5.00;;;2.10;;
11877;SDS011;5998;42.676;23.268;2023-07-31T11:20:05;3.08;;;2.08;;
11877;SDS011;5998;42.676;23.268;2023-07-31T11:22:32;3.80;;;2.00;;
11877;SDS011;5998;42.676;23.268;2023-07-31T11:24:59;7.95;;;2.30;;
11877;SDS011;5998;42.676;23.268;2023-07-31T11:27:28;2.95;;;2.15;;
11877;SDS011;5998;42.676;23.268;2023-07-31T11:29:59;3.58;;;1.92;;
11877;SDS011;5998;42.676;23.268;2023-07-31T11:32:26;4.60;;;2.10;;
11877;SDS011;5998;42.676;23.268;2023-07-31T11:34:52;4.53;;;2.40;;
11877;SDS011;5998;42.676;23.268;2023-07-31T11:37:19;6.00;;;2.97;;
11877;SDS011;5998;42.676;23.268;2023-07-31T11:39:58;3.50;;;2.83;;
11877;SDS011;5998;42.676;23.268;2023-07-31T11:42:24;3.33;;;2.73;;
11877;SDS011;5998;42.676;23.268;2023-07-31T11:44:52;6.93;;;2.80;;
11877;SDS011;5998;42.676;23.268;2023-07-31T11:47:18;4.90;;;2.87;;
11877;SDS011;5998;42.676;23.268;2023-07-31T11:49:45;3.13;;;2.90;;
11877;SDS011;5998;42.676;23.268;2023-07-31T11:52:12;6.23;;;2.63;;
11877;SDS011;5998;42.676;23.268;2023-07-31T11:54:39;5.47;;;3.43;;
11877;SDS011;5998;42.676;23.268;2023-07-31T11:57:06;6.43;;;3.28;;
11877;SDS011;5998;42.676;23.268;2023-07-31T11:59:33;5.90;;;3.22;;
11877;SDS011;5998;42.676;23.268;2023-07-31T12:02:01;5.13;;;2.90;;
11877;SDS011;5998;42.676;23.268;2023-07-31T12:04:27;7.82;;;3.90;;
11877;SDS011;5998;42.676;23.268;2023-07-31T12:06:54;8.43;;;3.95;;
11877;SDS011;5998;42.676;23.268;2023-07-31T12:09:20;4.45;;;3.95;;
11877;SDS011;5998;42.676;23.268;2023-07-31T12:11:47;4.53;;;4.20;;
11877;SDS011;5998;42.676;23.268;2023-07-31T12:14:20;5.72;;;5.07;;
11877;SDS011;5998;42.676;23.268;2023-07-31T12:16:47;6.70;;;6.18;;
11877;SDS011;5998;42.676;23.268;2023-07-31T12:19:15;6.72;;;6.22;;
11877;SDS011;5998;42.676;23.268;2023-07-31T12:21:41;5.88;;;5.20;;
11877;SDS011;5998;42.676;23.268;2023-07-31T12:24:08;6.00;;;5.47;;
11877;SDS011;5998;42.676;23.268;2023-07-31T12:26:34;5.75;;;5.25;;
11877;SDS011;5998;42.676;23.268;2023-07-31T12:29:01;8.02;;;4.97;;
11877;SDS011;5998;42.676;23.268;2023-07-31T12:31:28;6.57;;;5.10;;
11877;SDS011;5998;42.676;23.268;2023-07-31T12:33:55;8.38;;;4.90;;
11877;SDS011;5998;42.676;23.268;2023-07-31T12:36:23;6.90;;;5.22;;
11877;SDS011;5998;42.676;23.268;2023-07-31T12:38:50;5.63;;;5.13;;
11877;SDS011;5998;42.676;23.268;2023-07-31T12:41:16;5.82;;;5.32;;
11877;SDS011;5998;42.676;23.268;2023-07-31T12:43:43;7.00;;;5.30;;
11877;SDS011;5998;42.676;23.268;2023-07-31T12:46:10;6.00;;;5.22;;
11877;SDS011;5998;42.676;23.268;2023-07-31T12:48:37;5.65;;;5.15;;
11877;SDS011;5998;42.676;23.268;2023-07-31T12:51:04;5.80;;;5.40;;
11877;SDS011;5998;42.676;23.268;2023-07-31T12:53:33;13.45;;;5.65;;
11877;SDS011;5998;42.676;23.268;2023-07-31T12:55:59;8.13;;;5.40;;
11877;SDS011;5998;42.676;23.268;2023-07-31T12:58:26;9.95;;;5.03;;
11877;SDS011;5998;42.676;23.268;2023-07-31T13:00:52;5.75;;;5.10;;
11877;SDS011;5998;42.676;23.268;2023-07-31T13:03:18;5.97;;;5.47;;
11877;SDS011;5998;42.676;23.268;2023-07-31T13:05:45;6.35;;;5.90;;
11877;SDS011;5998;42.676;23.268;2023-07-31T13:08:11;6.38;;;5.85;;
11877;SDS011;5998;42.676;23.268;2023-07-31T13:10:42;7.00;;;5.18;;
11877;SDS011;5998;42.676;23.268;2023-07-31T13:13:08;5.93;;;5.32;;
11877;SDS011;5998;42.676;23.268;2023-07-31T13:15:35;5.85;;;5.35;;
11877;SDS011;5998;42.676;23.268;2023-07-31T13:18:01;5.93;;;5.40;;
11877;SDS011;5998;42.676;23.268;2023-07-31T13:20:28;5.57;;;5.07;;
11877;SDS011;5998;42.676;23.268;2023-07-31T13:22:54;5.77;;;4.87;;
11877;SDS011;5998;42.676;23.268;2023-07-31T13:25:20;14.47;;;5.30;;
11877;SDS011;5998;42.676;23.268;2023-07-31T13:27:48;6.80;;;4.97;;
11877;SDS011;5998;42.676;23.268;2023-07-31T13:30:15;4.87;;;4.17;;
11877;SDS011;5998;42.676;23.268;2023-07-31T13:32:41;6.85;;;4.63;;
11877;SDS011;5998;42.676;23.268;2023-07-31T13:35:08;13.30;;;3.88;;
11877;SDS011;5998;42.676;23.268;2023-07-31T13:37:36;8.23;;;4.68;;
11877;SDS011;5998;42.676;23.268;2023-07-31T13:40:02;9.75;;;4.65;;
11877;SDS011;5998;42.676;23.268;2023-07-31T13:42:29;7.07;;;4.85;;
11877;SDS011;5998;42.676;23.268;2023-07-31T13:44:57;5.05;;;4.38;;
11877;SDS011;5998;42.676;23.268;2023-07-31T13:47:24;5.88;;;4.38;;
11877;SDS011;5998;42.676;23.268;2023-07-31T13:49:50;5.68;;;4.60;;
11877;SDS011;5998;42.676;23.268;2023-07-31T13:52:17;5.10;;;4.45;;
11877;SDS011;5998;42.676;23.268;2023-07-31T13:54:43;4.78;;;4.35;;
11877;SDS011;5998;42.676;23.268;2023-07-31T13:57:10;5.22;;;4.60;;
11877;SDS011;5998;42.676;23.268;2023-07-31T13:59:36;8.80;;;4.05;;
11877;SDS011;5998;42.676;23.268;2023-07-31T14:02:04;4.77;;;4.33;;
11877;SDS011;5998;42.676;23.268;2023-07-31T14:04:30;5.05;;;4.65;;
11877;SDS011;5998;42.676;23.268;2023-07-31T14:06:57;4.67;;;4.17;;
11877;SDS011;5998;42.676;23.268;2023-07-31T14:09:23;5.50;;;4.07;;
11877;SDS011;5998;42.676;23.268;2023-07-31T14:11:50;4.95;;;4.05;;
11877;SDS011;5998;42.676;23.268;2023-07-31T14:14:16;5.10;;;4.60;;
11877;SDS011;5998;42.676;23.268;2023-07-31T14:16:44;4.15;;;3.85;;
11877;SDS011;5998;42.676;23.268;2023-07-31T14:19:12;4.70;;;4.20;;
11877;SDS011;5998;42.676;23.268;2023-07-31T14:21:38;7.57;;;4.60;;
11877;SDS011;5998;42.676;23.268;2023-07-31T14:24:05;7.80;;;4.50;;
11877;SDS011;5998;42.676;23.268;2023-07-31T14:26:31;6.55;;;4.18;;
11877;SDS011;5998;42.676;23.268;2023-07-31T14:28:58;7.13;;;4.10;;
11877;SDS011;5998;42.676;23.268;2023-07-31T14:31:24;8.43;;;4.15;;
11877;SDS011;5998;42.676;23.268;2023-07-31T14:33:51;4.28;;;3.88;;
11877;SDS011;5998;42.676;23.268;2023-07-31T14:36:18;4.70;;;3.70;;
11877;SDS011;5998;42.676;23.268;2023-07-31T14:38:45;5.15;;;3.70;;
11877;SDS011;5998;42.676;23.268;2023-07-31T14:41:11;7.93;;;4.10;;